createdAt,value
2019-03-26T00:01:23.889Z,0.00
2019-03-26T00:02:23.915Z,0.00
2019-03-26T00:04:26.025Z,0.00
2019-03-26T00:05:26.020Z,0.00
2019-03-26T00:07:28.049Z,0.00
2019-03-26T00:08:28.077Z,0.00
2019-03-26T00:10:30.117Z,0.00
2019-03-26T00:11:30.126Z,0.00
2019-03-26T00:13:32.316Z,0.00
2019-03-26T00:14:32.334Z,0.00
2019-03-26T00:16:34.415Z,0.00
2019-03-26T00:17:34.440Z,0.00
2019-03-26T00:19:36.516Z,0.00
2019-03-26T00:20:36.518Z,0.00
2019-03-26T00:22:38.542Z,0.00
2019-03-26T00:23:38.564Z,0.00
2019-03-26T00:25:40.729Z,0.00
2019-03-26T00:26:40.737Z,0.00
2019-03-26T00:28:42.976Z,0.00
2019-03-26T00:29:43.001Z,0.00
2019-03-26T00:31:34.992Z,0.00
2019-03-26T00:32:35.017Z,0.00
2019-03-26T00:34:37.126Z,0.00
2019-03-26T00:35:37.131Z,0.00
2019-03-26T00:37:39.135Z,0.00
2019-03-26T00:38:39.192Z,0.00
2019-03-26T00:40:41.239Z,0.00
2019-03-26T00:41:41.246Z,0.00
2019-03-26T00:43:43.393Z,0.00
2019-03-26T00:44:43.416Z,0.00
2019-03-26T00:46:45.535Z,0.00
2019-03-26T00:47:45.559Z,0.00
2019-03-26T00:48:45.588Z,0.00
2019-03-26T00:49:45.615Z,0.00
2019-03-26T00:50:45.644Z,0.00
2019-03-26T00:51:45.671Z,0.00
2019-03-26T00:52:45.701Z,0.00
2019-03-26T00:53:45.725Z,0.00
2019-03-26T00:54:45.755Z,0.00
2019-03-26T00:55:45.783Z,0.00
2019-03-26T00:56:45.810Z,0.00
2019-03-26T00:57:45.838Z,0.00
2019-03-26T00:58:45.868Z,0.00
2019-03-26T00:59:45.897Z,0.00
2019-03-26T01:00:45.926Z,0.00
2019-03-26T01:01:45.951Z,0.00
2019-03-26T01:02:45.977Z,0.00
2019-03-26T01:03:46.008Z,0.00
2019-03-26T01:04:46.034Z,0.00
2019-03-26T01:05:46.061Z,0.00
2019-03-26T01:06:46.088Z,0.00
2019-03-26T01:07:46.117Z,0.00
2019-03-26T01:08:46.145Z,0.00
2019-03-26T01:09:46.174Z,0.00
2019-03-26T01:10:53.387Z,0.00
2019-03-26T01:12:50.225Z,0.00
2019-03-26T01:13:50.246Z,0.00
2019-03-26T01:15:54.273Z,0.00
2019-03-26T01:16:54.297Z,0.00
2019-03-26T01:18:58.315Z,0.00
2019-03-26T01:19:58.340Z,0.00
2019-03-26T01:21:51.285Z,0.00
2019-03-26T01:22:51.315Z,0.00
2019-03-26T01:24:55.343Z,0.00
2019-03-26T01:25:55.350Z,0.00
2019-03-26T01:27:59.373Z,0.00
2019-03-26T01:28:59.392Z,0.00
2019-03-26T01:31:03.438Z,0.00
2019-03-26T01:32:03.450Z,0.00
2019-03-26T01:34:07.466Z,0.00
2019-03-26T01:35:07.489Z,0.00
2019-03-26T01:37:11.516Z,0.00
2019-03-26T01:38:11.533Z,0.00
2019-03-26T01:40:15.570Z,0.00
2019-03-26T01:41:15.574Z,0.00
2019-03-26T01:43:19.636Z,0.00
2019-03-26T01:44:19.657Z,0.00
2019-03-26T01:46:23.705Z,0.00
2019-03-26T01:47:23.715Z,0.00
2019-03-26T01:49:27.745Z,0.00
2019-03-26T01:50:27.756Z,0.00
2019-03-26T01:52:31.777Z,0.00
2019-03-26T01:53:31.800Z,0.00
2019-03-26T01:55:35.837Z,0.00
2019-03-26T01:56:35.847Z,0.00
2019-03-26T01:58:39.860Z,0.00
2019-03-26T01:59:39.884Z,0.00
2019-03-26T02:01:32.848Z,0.00
2019-03-26T02:02:32.854Z,0.00
2019-03-26T02:04:36.876Z,0.00
2019-03-26T02:05:36.893Z,0.00
2019-03-26T02:07:40.912Z,0.00
2019-03-26T02:08:40.936Z,0.00
2019-03-26T02:10:44.970Z,0.00
2019-03-26T02:11:44.974Z,0.00
2019-03-26T02:13:48.993Z,0.00
2019-03-26T02:14:49.016Z,0.00
2019-03-26T02:16:53.052Z,0.00
2019-03-26T02:17:53.059Z,0.00
2019-03-26T02:19:57.077Z,0.00
2019-03-26T02:20:57.098Z,0.00
2019-03-26T02:23:01.126Z,0.00
2019-03-26T02:24:01.153Z,0.00
2019-03-26T02:26:05.181Z,0.00
2019-03-26T02:27:05.189Z,0.00
2019-03-26T02:29:09.208Z,0.00
2019-03-26T02:30:09.229Z,0.00
2019-03-26T02:32:13.250Z,0.00
2019-03-26T02:33:13.278Z,0.00
2019-03-26T02:35:18.961Z,0.00
2019-03-26T02:36:17.310Z,0.00
2019-03-26T02:38:21.339Z,0.00
2019-03-26T02:39:21.362Z,0.00
2019-03-26T02:41:14.318Z,0.00
2019-03-26T02:42:14.325Z,0.00
2019-03-26T02:44:18.346Z,0.00
2019-03-26T02:45:18.368Z,0.00
2019-03-26T02:47:22.387Z,0.00
2019-03-26T02:48:22.411Z,0.00
2019-03-26T02:50:26.425Z,0.00
2019-03-26T02:51:26.448Z,0.00
2019-03-26T02:53:30.491Z,0.00
2019-03-26T02:54:30.486Z,0.00
2019-03-26T02:56:34.525Z,0.00
2019-03-26T02:57:34.527Z,0.00
2019-03-26T02:59:38.549Z,0.00
2019-03-26T03:00:38.570Z,0.00
2019-03-26T03:02:42.589Z,0.00
2019-03-26T03:03:42.610Z,0.00
2019-03-26T03:05:46.627Z,0.00
2019-03-26T03:06:46.650Z,0.00
2019-03-26T03:08:50.668Z,0.00
2019-03-26T03:09:50.689Z,0.00
2019-03-26T03:11:43.645Z,0.00
2019-03-26T03:12:43.653Z,0.00
2019-03-26T03:14:47.672Z,0.00
2019-03-26T03:15:47.695Z,0.00
2019-03-26T03:17:51.730Z,0.00
2019-03-26T03:18:51.733Z,0.00
2019-03-26T03:20:55.777Z,0.00
2019-03-26T03:21:55.782Z,0.00
2019-03-26T03:23:59.799Z,0.00
2019-03-26T03:24:59.823Z,0.00
2019-03-26T03:27:03.876Z,0.00
2019-03-26T03:28:03.877Z,0.00
2019-03-26T03:30:07.884Z,0.00
2019-03-26T03:31:07.899Z,0.00
2019-03-26T03:33:11.925Z,0.00
2019-03-26T03:34:11.938Z,0.00
2019-03-26T03:36:15.982Z,0.00
2019-03-26T03:37:15.979Z,0.00
2019-03-26T03:39:19.998Z,0.00
2019-03-26T03:40:20.021Z,0.00
2019-03-26T03:42:24.051Z,0.00
2019-03-26T03:43:24.059Z,0.00
2019-03-26T03:45:28.086Z,0.00
2019-03-26T03:46:28.098Z,0.00
2019-03-26T03:48:32.115Z,0.00
2019-03-26T03:49:32.140Z,0.00
2019-03-26T03:51:25.094Z,0.00
2019-03-26T03:52:25.103Z,0.00
2019-03-26T03:54:37.958Z,0.00
2019-03-26T03:55:29.140Z,0.00
2019-03-26T03:57:33.176Z,0.00
2019-03-26T03:58:33.182Z,0.00
2019-03-26T04:00:37.195Z,0.00
2019-03-26T04:01:37.219Z,0.00
2019-03-26T04:03:41.245Z,0.00
2019-03-26T04:04:41.264Z,0.00
2019-03-26T04:06:45.306Z,0.00
2019-03-26T04:07:45.302Z,0.00
2019-03-26T04:09:49.320Z,0.00
2019-03-26T04:10:49.342Z,0.00
2019-03-26T04:12:53.377Z,0.00
2019-03-26T04:13:53.393Z,0.00
2019-03-26T04:15:57.407Z,0.00
2019-03-26T04:16:57.450Z,0.00
2019-03-26T04:19:01.444Z,0.00
2019-03-26T04:20:01.471Z,0.00
2019-03-26T04:21:54.426Z,0.00
2019-03-26T04:22:54.429Z,0.00
2019-03-26T04:24:58.449Z,0.00
2019-03-26T04:25:58.469Z,0.00
2019-03-26T04:28:02.529Z,0.00
2019-03-26T04:29:02.508Z,0.00
2019-03-26T04:31:06.562Z,0.00
2019-03-26T04:32:06.547Z,0.00
2019-03-26T04:34:10.568Z,0.00
2019-03-26T04:35:10.590Z,0.00
2019-03-26T04:37:14.610Z,0.00
2019-03-26T04:38:14.628Z,0.00
2019-03-26T04:40:18.650Z,0.00
2019-03-26T04:41:18.674Z,0.00
2019-03-26T04:43:22.711Z,0.00
2019-03-26T04:44:22.710Z,0.00
2019-03-26T04:46:34.723Z,0.00
2019-03-26T04:47:26.765Z,0.00
2019-03-26T04:49:30.769Z,0.00
2019-03-26T04:50:30.794Z,0.00
2019-03-26T04:52:34.829Z,0.00
2019-03-26T04:53:34.834Z,0.00
2019-03-26T04:55:38.852Z,0.00
2019-03-26T04:56:38.872Z,0.00
2019-03-26T04:58:44.070Z,0.00
2019-03-26T04:59:42.914Z,0.00
2019-03-26T05:01:35.855Z,0.00
2019-03-26T05:02:35.880Z,0.00
2019-03-26T05:04:39.896Z,0.00
2019-03-26T05:05:39.918Z,0.00
2019-03-26T05:07:43.947Z,0.00
2019-03-26T05:08:43.972Z,0.00
2019-03-26T05:10:56.836Z,0.00
2019-03-26T05:11:48.013Z,0.00
2019-03-26T05:13:52.045Z,0.00
2019-03-26T05:14:52.051Z,0.00
2019-03-26T05:16:56.107Z,0.00
2019-03-26T05:17:56.791Z,0.00
2019-03-26T05:20:00.146Z,0.00
2019-03-26T05:21:00.129Z,0.00
2019-03-26T05:23:04.146Z,0.00
2019-03-26T05:24:04.166Z,0.00
2019-03-26T05:26:08.185Z,0.00
2019-03-26T05:27:08.208Z,0.00
2019-03-26T05:29:12.251Z,0.00
2019-03-26T05:30:12.250Z,0.00
2019-03-26T05:32:16.307Z,0.00
2019-03-26T05:33:16.290Z,0.00
2019-03-26T05:35:20.310Z,0.00
2019-03-26T05:36:20.331Z,0.00
2019-03-26T05:38:24.352Z,0.00
2019-03-26T05:39:24.370Z,0.00
2019-03-26T05:41:17.311Z,0.00
2019-03-26T05:42:17.330Z,0.00
2019-03-26T05:44:21.400Z,0.00
2019-03-26T05:45:21.371Z,0.00
2019-03-26T05:47:25.410Z,0.00
2019-03-26T05:48:25.414Z,0.00
2019-03-26T05:50:29.435Z,0.00
2019-03-26T05:51:29.458Z,0.00
2019-03-26T05:53:33.478Z,0.00
2019-03-26T05:54:33.502Z,0.00
2019-03-26T05:56:37.519Z,0.00
2019-03-26T05:57:37.541Z,0.00
2019-03-26T05:59:41.574Z,0.00
2019-03-26T06:00:41.579Z,0.00
2019-03-26T06:02:45.621Z,0.00
2019-03-26T06:03:45.622Z,0.00
2019-03-26T06:05:49.639Z,0.00
2019-03-26T06:06:49.661Z,0.00
2019-03-26T06:08:53.704Z,0.00
2019-03-26T06:09:53.704Z,0.00
2019-03-26T06:11:46.646Z,0.00
2019-03-26T06:12:46.666Z,0.00
2019-03-26T06:14:50.684Z,0.00
2019-03-26T06:15:50.707Z,0.00
2019-03-26T06:17:57.408Z,0.00
2019-03-26T06:18:54.747Z,0.00
2019-03-26T06:20:58.766Z,5.63
2019-03-26T06:21:58.789Z,5.63
2019-03-26T06:24:02.808Z,11.25
2019-03-26T06:25:02.831Z,11.25
2019-03-26T06:27:06.892Z,11.25
2019-03-26T06:28:06.935Z,11.25
2019-03-26T06:30:10.953Z,11.25
2019-03-26T06:31:10.953Z,11.25
2019-03-26T06:33:14.995Z,11.25
2019-03-26T06:34:15.000Z,11.25
2019-03-26T06:36:19.021Z,11.25
2019-03-26T06:37:19.043Z,11.25
2019-03-26T06:39:23.085Z,5.63
2019-03-26T06:40:23.086Z,5.63
2019-03-26T06:42:27.106Z,5.63
2019-03-26T06:43:27.132Z,5.63
2019-03-26T06:45:31.217Z,5.63
2019-03-26T06:46:31.227Z,5.63
2019-03-26T06:48:35.258Z,5.63
2019-03-26T06:49:35.263Z,5.63
2019-03-26T06:51:28.216Z,5.63
2019-03-26T06:52:28.241Z,5.63
2019-03-26T06:54:32.249Z,5.63
2019-03-26T06:55:32.338Z,5.63
2019-03-26T06:57:36.300Z,11.25
2019-03-26T06:58:36.398Z,11.25
2019-03-26T07:00:40.365Z,11.25
2019-03-26T07:01:40.357Z,11.25
2019-03-26T07:03:44.392Z,5.63
2019-03-26T07:04:44.396Z,5.63
2019-03-26T07:06:48.421Z,5.63
2019-03-26T07:07:48.447Z,5.63
2019-03-26T07:09:52.467Z,5.63
2019-03-26T07:10:59.648Z,5.63
2019-03-26T07:12:56.532Z,5.63
2019-03-26T07:13:56.535Z,5.63
2019-03-26T07:16:00.562Z,5.63
2019-03-26T07:17:00.576Z,5.63
2019-03-26T07:19:04.602Z,5.63
2019-03-26T07:20:04.688Z,5.63
2019-03-26T07:21:57.571Z,5.63
2019-03-26T07:22:57.593Z,5.63
2019-03-26T07:25:01.637Z,5.63
2019-03-26T07:26:01.638Z,5.63
2019-03-26T07:28:05.662Z,16.88
2019-03-26T07:29:05.681Z,22.50
2019-03-26T07:31:09.702Z,28.13
2019-03-26T07:32:09.732Z,33.75
2019-03-26T07:34:13.748Z,33.75
2019-03-26T07:35:13.767Z,39.38
2019-03-26T07:37:17.791Z,39.38
2019-03-26T07:38:17.814Z,33.75
2019-03-26T07:40:19.822Z,39.38
2019-03-26T07:41:19.844Z,33.75
2019-03-26T07:43:21.992Z,33.75
2019-03-26T07:44:22.019Z,39.38
2019-03-26T07:46:24.044Z,33.75
2019-03-26T07:47:24.065Z,28.13
2019-03-26T07:49:26.118Z,28.13
2019-03-26T07:50:26.097Z,33.75
2019-03-26T07:52:28.131Z,33.75
2019-03-26T07:53:28.150Z,39.38
2019-03-26T07:55:30.213Z,28.13
2019-03-26T07:56:30.239Z,28.13
2019-03-26T07:58:33.393Z,33.75
2019-03-26T07:59:32.262Z,39.38
2019-03-26T08:01:25.207Z,45.00
2019-03-26T08:02:25.229Z,39.38
2019-03-26T08:04:27.411Z,45.00
2019-03-26T08:05:29.874Z,39.38
2019-03-26T08:07:29.438Z,39.38
2019-03-26T08:08:29.461Z,45.00
2019-03-26T08:10:31.583Z,50.63
2019-03-26T08:11:31.610Z,50.63
2019-03-26T08:13:33.787Z,45.00
2019-03-26T08:14:33.769Z,45.00
2019-03-26T08:16:35.770Z,39.38
2019-03-26T08:17:35.812Z,45.00
2019-03-26T08:19:27.961Z,45.00
2019-03-26T08:20:27.960Z,50.63
2019-03-26T08:22:30.233Z,45.00
2019-03-26T08:23:30.043Z,45.00
2019-03-26T08:24:30.074Z,45.00
2019-03-26T08:25:30.102Z,45.00
2019-03-26T08:26:30.128Z,45.00
2019-03-26T08:27:30.156Z,50.63
2019-03-26T08:28:30.189Z,50.63
2019-03-26T08:29:30.217Z,50.63
2019-03-26T08:30:30.242Z,50.63
2019-03-26T08:31:30.272Z,50.63
2019-03-26T08:32:30.301Z,50.63
2019-03-26T08:33:30.331Z,45.00
2019-03-26T08:34:30.359Z,39.38
2019-03-26T08:35:30.388Z,33.75
2019-03-26T08:36:30.418Z,28.13
2019-03-26T08:37:30.452Z,22.50
2019-03-26T08:38:33.418Z,22.50
2019-03-26T08:39:30.509Z,22.50
2019-03-26T08:40:30.533Z,22.50
2019-03-26T08:41:30.564Z,22.50
2019-03-26T08:42:30.592Z,16.88
2019-03-26T08:43:30.621Z,16.88
2019-03-26T08:44:30.652Z,11.25
2019-03-26T08:45:30.757Z,16.88
2019-03-26T08:46:30.709Z,16.88
2019-03-26T08:47:30.738Z,22.50
2019-03-26T08:48:30.767Z,28.13
2019-03-26T08:49:31.141Z,33.75
2019-03-26T08:50:30.823Z,39.38
2019-03-26T08:51:30.854Z,39.38
2019-03-26T08:52:30.883Z,45.00
2019-03-26T08:53:30.914Z,45.00
2019-03-26T08:54:30.941Z,50.63
2019-03-26T08:55:30.973Z,45.00
2019-03-26T08:56:31.008Z,45.00
2019-03-26T08:57:31.028Z,33.75
2019-03-26T08:58:31.058Z,33.75
2019-03-26T08:59:31.087Z,33.75
2019-03-26T09:00:32.199Z,39.38
2019-03-26T09:01:31.146Z,39.38
2019-03-26T09:02:31.207Z,39.38
2019-03-26T09:03:31.206Z,45.00
2019-03-26T09:04:31.234Z,39.38
2019-03-26T09:05:31.267Z,45.00
2019-03-26T09:06:31.291Z,45.00
2019-03-26T09:07:31.324Z,50.63
2019-03-26T09:08:31.353Z,61.88
2019-03-26T09:09:31.380Z,67.50
2019-03-26T09:10:31.418Z,67.50
2019-03-26T09:11:31.438Z,61.88
2019-03-26T09:12:31.470Z,67.50
2019-03-26T09:13:31.499Z,45.00
2019-03-26T09:14:31.525Z,39.38
2019-03-26T09:15:31.556Z,39.38
2019-03-26T09:16:31.590Z,50.63
2019-03-26T09:17:31.613Z,45.00
2019-03-26T09:18:31.641Z,39.38
2019-03-26T09:19:31.671Z,39.38
2019-03-26T09:20:31.702Z,45.00
2019-03-26T09:21:32.779Z,45.00
2019-03-26T09:22:31.760Z,45.00
2019-03-26T09:23:31.790Z,39.38
2019-03-26T09:24:31.818Z,39.38
2019-03-26T09:25:31.860Z,39.38
2019-03-26T09:26:31.878Z,39.38
2019-03-26T09:27:31.912Z,45.00
2019-03-26T09:28:31.944Z,50.63
2019-03-26T09:29:31.970Z,56.25
2019-03-26T09:30:31.997Z,50.63
2019-03-26T09:31:32.026Z,45.00
2019-03-26T09:32:32.057Z,39.38
2019-03-26T09:33:32.088Z,33.75
2019-03-26T09:34:32.115Z,28.13
2019-03-26T09:35:32.145Z,28.13
2019-03-26T09:36:32.181Z,28.13
2019-03-26T09:37:32.205Z,28.13
2019-03-26T09:38:38.797Z,33.75
2019-03-26T09:39:32.262Z,33.75
2019-03-26T09:40:32.293Z,39.38
2019-03-26T09:41:32.323Z,33.75
2019-03-26T09:42:32.352Z,33.75
2019-03-26T09:43:32.381Z,28.13
2019-03-26T09:44:32.416Z,33.75
2019-03-26T09:45:32.446Z,33.75
2019-03-26T09:46:32.470Z,39.38
2019-03-26T09:47:32.498Z,39.38
2019-03-26T09:48:32.531Z,39.38
2019-03-26T09:49:32.561Z,33.75
2019-03-26T09:50:32.601Z,28.13
2019-03-26T09:51:32.618Z,28.13
2019-03-26T09:52:32.656Z,28.13
2019-03-26T09:53:32.684Z,28.13
2019-03-26T09:54:32.707Z,33.75
2019-03-26T09:55:32.736Z,45.00
2019-03-26T09:56:32.766Z,50.63
2019-03-26T09:57:32.800Z,50.63
2019-03-26T09:58:32.827Z,50.63
2019-03-26T09:59:32.856Z,50.63
2019-03-26T10:00:32.938Z,45.00
2019-03-26T10:01:32.920Z,50.63
2019-03-26T10:02:32.942Z,67.50
2019-03-26T10:03:32.974Z,78.75
2019-03-26T10:04:33.004Z,84.38
2019-03-26T10:05:33.102Z,78.75
2019-03-26T10:06:33.067Z,67.50
2019-03-26T10:07:33.092Z,50.63
2019-03-26T10:08:33.122Z,45.00
2019-03-26T10:09:33.153Z,45.00
2019-03-26T10:10:33.182Z,39.38
2019-03-26T10:11:33.210Z,33.75
2019-03-26T10:12:33.245Z,28.13
2019-03-26T10:13:36.231Z,28.13
2019-03-26T10:14:33.301Z,22.50
2019-03-26T10:15:33.336Z,22.50
2019-03-26T10:16:33.359Z,16.88
2019-03-26T10:17:33.388Z,16.88
2019-03-26T10:18:33.416Z,16.88
2019-03-26T10:19:33.451Z,11.25
2019-03-26T10:20:33.477Z,16.88
2019-03-26T10:21:33.513Z,16.88
2019-03-26T10:22:33.539Z,22.50
2019-03-26T10:23:33.566Z,33.75
2019-03-26T10:24:33.606Z,39.38
2019-03-26T10:25:33.626Z,45.00
2019-03-26T10:26:33.657Z,45.00
2019-03-26T10:27:35.077Z,39.38
2019-03-26T10:28:33.717Z,39.38
2019-03-26T10:29:33.747Z,39.38
2019-03-26T10:30:33.774Z,39.38
2019-03-26T10:31:33.806Z,39.38
2019-03-26T10:32:33.846Z,33.75
2019-03-26T10:33:33.863Z,28.13
2019-03-26T10:34:36.423Z,28.13
2019-03-26T10:35:33.924Z,28.13
2019-03-26T10:36:33.954Z,28.13
2019-03-26T10:37:33.982Z,22.50
2019-03-26T10:38:34.016Z,22.50
2019-03-26T10:39:34.046Z,28.13
2019-03-26T10:40:34.075Z,39.38
2019-03-26T10:41:34.107Z,45.00
2019-03-26T10:42:34.132Z,45.00
2019-03-26T10:43:34.165Z,39.38
2019-03-26T10:44:34.192Z,39.38
2019-03-26T10:45:34.224Z,33.75
2019-03-26T10:46:34.250Z,28.13
2019-03-26T10:47:34.280Z,22.50
2019-03-26T10:48:34.311Z,28.13
2019-03-26T10:49:34.342Z,28.13
2019-03-26T10:50:34.372Z,33.75
2019-03-26T10:51:34.399Z,33.75
2019-03-26T10:52:34.640Z,39.38
2019-03-26T10:53:34.459Z,39.38
2019-03-26T10:54:34.489Z,39.38
2019-03-26T10:55:34.518Z,45.00
2019-03-26T10:56:34.550Z,67.50
2019-03-26T10:57:34.594Z,56.25
2019-03-26T10:58:34.609Z,39.38
2019-03-26T10:59:34.642Z,39.38
2019-03-26T11:00:34.670Z,45.00
2019-03-26T11:01:34.697Z,45.00
2019-03-26T11:02:34.731Z,45.00
2019-03-26T11:03:34.758Z,45.00
2019-03-26T11:04:34.789Z,45.00
2019-03-26T11:05:34.817Z,45.00
2019-03-26T11:06:34.847Z,39.38
2019-03-26T11:07:34.879Z,39.38
2019-03-26T11:08:34.909Z,45.00
2019-03-26T11:09:34.945Z,39.38
2019-03-26T11:10:34.968Z,39.38
2019-03-26T11:11:34.999Z,39.38
2019-03-26T11:12:35.027Z,22.50
2019-03-26T11:13:35.058Z,22.50
2019-03-26T11:14:39.037Z,22.50
2019-03-26T11:15:35.122Z,22.50
2019-03-26T11:16:35.148Z,16.88
2019-03-26T11:17:35.178Z,16.88
2019-03-26T11:18:35.212Z,16.88
2019-03-26T11:19:35.241Z,16.88
2019-03-26T11:20:35.268Z,16.88
2019-03-26T11:21:35.299Z,16.88
2019-03-26T11:22:35.328Z,16.88
2019-03-26T11:23:35.358Z,16.88
2019-03-26T11:24:35.389Z,16.88
2019-03-26T11:25:35.422Z,16.88
2019-03-26T11:26:35.448Z,22.50
2019-03-26T11:27:35.481Z,22.50
2019-03-26T11:28:35.511Z,22.50
2019-03-26T11:29:35.600Z,22.50
2019-03-26T11:30:35.568Z,16.88
2019-03-26T11:31:35.598Z,16.88
2019-03-26T11:32:35.632Z,11.25
2019-03-26T11:33:35.660Z,11.25
2019-03-26T11:34:35.689Z,11.25
2019-03-26T11:35:35.720Z,11.25
2019-03-26T11:36:35.748Z,11.25
2019-03-26T11:37:35.779Z,11.25
2019-03-26T11:38:35.809Z,11.25
2019-03-26T11:39:35.839Z,11.25
2019-03-26T11:40:35.870Z,11.25
2019-03-26T11:41:35.900Z,11.25
2019-03-26T11:42:35.928Z,11.25
2019-03-26T11:43:35.958Z,11.25
2019-03-26T11:44:35.987Z,11.25
2019-03-26T11:45:36.019Z,11.25
2019-03-26T11:46:36.047Z,16.88
2019-03-26T11:47:36.077Z,11.25
2019-03-26T11:48:36.108Z,16.88
2019-03-26T11:49:36.138Z,11.25
2019-03-26T11:50:36.166Z,11.25
2019-03-26T11:51:36.195Z,11.25
2019-03-26T11:52:36.227Z,11.25
2019-03-26T11:53:36.257Z,11.25
2019-03-26T11:54:36.288Z,11.25
2019-03-26T11:55:36.316Z,11.25
2019-03-26T11:56:36.345Z,11.25
2019-03-26T11:57:36.375Z,11.25
2019-03-26T11:58:36.405Z,16.88
2019-03-26T11:59:36.434Z,16.88
2019-03-26T12:00:36.467Z,16.88
2019-03-26T12:01:36.495Z,16.88
2019-03-26T12:02:36.681Z,22.50
2019-03-26T12:03:36.555Z,39.38
2019-03-26T12:04:36.583Z,50.63
2019-03-26T12:05:36.613Z,45.00
2019-03-26T12:06:36.645Z,28.13
2019-03-26T12:07:36.673Z,16.88
2019-03-26T12:08:36.703Z,16.88
2019-03-26T12:09:46.253Z,11.25
2019-03-26T12:10:36.762Z,11.25
2019-03-26T12:11:36.791Z,11.25
2019-03-26T12:12:36.820Z,11.25
2019-03-26T12:13:36.855Z,11.25
2019-03-26T12:14:36.881Z,16.88
2019-03-26T12:15:36.911Z,22.50
2019-03-26T12:16:36.941Z,22.50
2019-03-26T12:17:36.970Z,16.88
2019-03-26T12:18:37.001Z,16.88
2019-03-26T12:19:37.028Z,16.88
2019-03-26T12:20:37.060Z,16.88
2019-03-26T12:21:37.088Z,22.50
2019-03-26T12:22:37.119Z,28.13
2019-03-26T12:23:37.149Z,33.75
2019-03-26T12:24:37.178Z,28.13
2019-03-26T12:25:37.216Z,22.50
2019-03-26T12:26:37.238Z,16.88
2019-03-26T12:27:37.269Z,11.25
2019-03-26T12:28:37.298Z,16.88
2019-03-26T12:29:37.329Z,22.50
2019-03-26T12:30:37.358Z,33.75
2019-03-26T12:31:37.385Z,50.63
2019-03-26T12:32:40.634Z,56.25
2019-03-26T12:33:37.447Z,73.13
2019-03-26T12:34:37.476Z,84.38
2019-03-26T12:35:37.507Z,95.63
2019-03-26T12:36:40.085Z,90.00
2019-03-26T12:37:37.571Z,95.63
2019-03-26T12:38:37.597Z,90.00
2019-03-26T12:39:37.627Z,106.88
2019-03-26T12:40:37.659Z,101.25
2019-03-26T12:41:38.687Z,106.88
2019-03-26T12:42:37.715Z,90.00
2019-03-26T12:43:37.830Z,84.38
2019-03-26T12:44:37.779Z,67.50
2019-03-26T12:45:37.807Z,50.63
2019-03-26T12:46:37.837Z,45.00
2019-03-26T12:47:37.903Z,56.25
2019-03-26T12:48:37.901Z,73.13
2019-03-26T12:49:37.940Z,73.13
2019-03-26T12:50:37.959Z,67.50
2019-03-26T12:51:39.394Z,56.25
2019-03-26T12:52:38.027Z,50.63
2019-03-26T12:53:38.055Z,56.25
2019-03-26T12:54:38.082Z,45.00
2019-03-26T12:55:38.114Z,39.38
2019-03-26T12:56:38.143Z,33.75
2019-03-26T12:57:38.173Z,39.38
2019-03-26T12:58:38.206Z,61.88
2019-03-26T12:59:38.234Z,45.00
2019-03-26T13:00:38.269Z,67.50
2019-03-26T13:01:38.297Z,73.13
2019-03-26T13:02:38.329Z,67.50
2019-03-26T13:03:38.358Z,61.88
2019-03-26T13:04:38.390Z,45.00
2019-03-26T13:05:38.423Z,45.00
2019-03-26T13:06:38.450Z,45.00
2019-03-26T13:07:38.479Z,50.63
2019-03-26T13:08:38.511Z,61.88
2019-03-26T13:09:41.669Z,78.75
2019-03-26T13:11:45.767Z,73.13
2019-03-26T13:13:42.646Z,95.63
2019-03-26T13:14:42.656Z,95.63
2019-03-26T13:16:46.684Z,78.75
2019-03-26T13:17:46.709Z,56.25
2019-03-26T13:19:50.736Z,39.38
2019-03-26T13:20:50.768Z,33.75
2019-03-26T13:22:54.790Z,22.50
2019-03-26T13:23:54.816Z,22.50
2019-03-26T13:25:58.845Z,22.50
2019-03-26T13:26:58.872Z,33.75
2019-03-26T13:29:02.900Z,73.13
2019-03-26T13:30:02.930Z,84.38
2019-03-26T13:31:55.878Z,106.88
2019-03-26T13:32:55.904Z,95.63
2019-03-26T13:34:59.931Z,101.25
2019-03-26T13:35:59.963Z,101.25
2019-03-26T13:38:03.995Z,90.00
2019-03-26T13:39:04.014Z,95.63
2019-03-26T13:41:08.043Z,73.13
2019-03-26T13:42:08.071Z,50.63
2019-03-26T13:44:12.104Z,33.75
2019-03-26T13:45:12.125Z,28.13
2019-03-26T13:47:16.160Z,28.13
2019-03-26T13:48:16.183Z,22.50
2019-03-26T13:50:20.224Z,11.25
2019-03-26T13:51:20.238Z,5.63
2019-03-26T13:53:24.266Z,0.00
2019-03-26T13:54:24.291Z,0.00
2019-03-26T13:56:28.321Z,0.00
2019-03-26T13:57:28.414Z,0.00
2019-03-26T13:59:32.386Z,5.63
2019-03-26T14:00:32.409Z,5.63
2019-03-26T14:02:25.363Z,5.63
2019-03-26T14:03:25.385Z,11.25
2019-03-26T14:05:29.409Z,5.63
2019-03-26T14:06:32.356Z,5.63
2019-03-26T14:08:33.469Z,11.25
2019-03-26T14:09:33.495Z,16.88
2019-03-26T14:11:37.527Z,16.88
2019-03-26T14:12:37.552Z,11.25
2019-03-26T14:14:41.576Z,16.88
2019-03-26T14:15:41.603Z,16.88
2019-03-26T14:17:45.645Z,16.88
2019-03-26T14:18:45.662Z,16.88
2019-03-26T14:20:49.685Z,16.88
2019-03-26T14:21:49.711Z,16.88
2019-03-26T14:23:53.739Z,28.13
2019-03-26T14:24:53.766Z,33.75
2019-03-26T14:26:57.786Z,39.38
2019-03-26T14:27:57.816Z,33.75
2019-03-26T14:30:01.842Z,39.38
2019-03-26T14:31:01.865Z,39.38
2019-03-26T14:33:05.894Z,50.63
2019-03-26T14:34:05.919Z,45.00
2019-03-26T14:36:09.949Z,56.25
2019-03-26T14:37:09.976Z,50.63
2019-03-26T14:39:14.002Z,56.25
2019-03-26T14:40:14.029Z,50.63
2019-03-26T14:42:06.977Z,50.63
2019-03-26T14:43:07.002Z,45.00
2019-03-26T14:45:11.029Z,50.63
2019-03-26T14:46:11.054Z,50.63
2019-03-26T14:48:15.097Z,50.63
2019-03-26T14:49:15.105Z,50.63
2019-03-26T14:51:19.134Z,50.63
2019-03-26T14:52:19.159Z,45.00
2019-03-26T14:54:23.184Z,39.38
2019-03-26T14:55:23.209Z,33.75
2019-03-26T14:57:27.233Z,28.13
2019-03-26T14:58:27.262Z,22.50
2019-03-26T15:00:31.289Z,28.13
2019-03-26T15:01:31.316Z,28.13
2019-03-26T15:03:35.397Z,45.00
2019-03-26T15:04:35.366Z,45.00
2019-03-26T15:06:39.398Z,45.00
2019-03-26T15:07:39.423Z,39.38
2019-03-26T15:09:32.602Z,39.38
2019-03-26T15:10:32.606Z,45.00
2019-03-26T15:12:25.558Z,45.00
2019-03-26T15:13:25.586Z,39.38
2019-03-26T15:15:29.620Z,39.38
2019-03-26T15:16:29.648Z,39.38
2019-03-26T15:18:33.673Z,33.75
2019-03-26T15:19:33.701Z,28.13
2019-03-26T15:21:37.735Z,28.13
2019-03-26T15:22:37.761Z,22.50
2019-03-26T15:24:41.804Z,16.88
2019-03-26T15:25:41.831Z,16.88
2019-03-26T15:27:45.862Z,11.25
2019-03-26T15:28:45.886Z,11.25
2019-03-26T15:30:49.910Z,11.25
2019-03-26T15:31:49.939Z,11.25
2019-03-26T15:33:53.969Z,11.25
2019-03-26T15:34:53.990Z,16.88
2019-03-26T15:36:58.041Z,16.88
2019-03-26T15:37:58.052Z,22.50
2019-03-26T15:40:02.081Z,28.13
2019-03-26T15:41:02.107Z,33.75
2019-03-26T15:43:06.133Z,33.75
2019-03-26T15:44:06.164Z,33.75
2019-03-26T15:46:10.194Z,33.75
2019-03-26T15:47:10.223Z,33.75
2019-03-26T15:49:14.248Z,28.13
2019-03-26T15:50:14.278Z,28.13
2019-03-26T15:52:07.227Z,28.13
2019-03-26T15:53:07.251Z,22.50
2019-03-26T15:55:11.277Z,22.50
2019-03-26T15:56:11.303Z,22.50
2019-03-26T15:58:15.333Z,22.50
2019-03-26T15:59:15.358Z,22.50
2019-03-26T16:01:19.387Z,16.88
2019-03-26T16:02:19.415Z,16.88
2019-03-26T16:04:23.439Z,16.88
2019-03-26T16:05:23.469Z,11.25
2019-03-26T16:07:27.493Z,11.25
2019-03-26T16:08:27.521Z,5.63
2019-03-26T16:10:31.548Z,11.25
2019-03-26T16:11:35.941Z,11.25
2019-03-26T16:13:36.060Z,11.25
2019-03-26T16:14:35.627Z,5.63
2019-03-26T16:16:39.663Z,5.63
2019-03-26T16:17:39.686Z,5.63
2019-03-26T16:19:43.713Z,5.63
2019-03-26T16:20:43.738Z,5.63
2019-03-26T16:22:47.787Z,5.63
2019-03-26T16:23:47.794Z,5.63
2019-03-26T16:25:51.820Z,5.63
2019-03-26T16:26:51.850Z,5.63
2019-03-26T16:28:55.887Z,5.63
2019-03-26T16:29:55.898Z,5.63
2019-03-26T16:31:48.850Z,5.63
2019-03-26T16:32:48.875Z,5.63
2019-03-26T16:34:52.917Z,5.63
2019-03-26T16:35:52.926Z,5.63
2019-03-26T16:37:56.058Z,5.63
2019-03-26T16:38:56.072Z,5.63
2019-03-26T16:41:00.527Z,0.00
2019-03-26T16:42:00.122Z,0.00
2019-03-26T16:44:04.163Z,0.00
2019-03-26T16:45:04.173Z,0.00
2019-03-26T16:47:08.205Z,0.00
2019-03-26T16:48:08.229Z,0.00
2019-03-26T16:50:12.279Z,0.00
2019-03-26T16:51:12.305Z,0.00
2019-03-26T16:53:16.358Z,0.00
2019-03-26T16:54:16.359Z,0.00
2019-03-26T16:56:20.383Z,0.00
2019-03-26T16:57:20.411Z,0.00
2019-03-26T16:59:24.450Z,0.00
2019-03-26T17:00:24.463Z,0.00
2019-03-26T17:02:17.414Z,0.00
2019-03-26T17:03:30.376Z,0.00
2019-03-26T17:05:21.463Z,0.00
2019-03-26T17:06:21.490Z,0.00
2019-03-26T17:08:25.544Z,0.00
2019-03-26T17:09:25.543Z,0.00
2019-03-26T17:11:29.570Z,0.00
2019-03-26T17:12:29.593Z,0.00